createdAt,value
2019-03-03T00:01:35.406Z,99746.98
2019-03-03T00:04:41.105Z,99743.73
2019-03-03T00:07:46.799Z,99744.37
2019-03-03T00:10:52.508Z,99752.09
2019-03-03T00:13:59.297Z,99752.03
2019-03-03T00:17:05.023Z,99758.63
2019-03-03T00:20:11.185Z,99762.14
2019-03-03T00:23:16.923Z,99760.00
2019-03-03T00:26:22.643Z,99762.08
2019-03-03T00:29:28.473Z,99759.42
2019-03-03T00:32:34.368Z,99761.69
2019-03-03T00:35:40.059Z,99762.47
2019-03-03T00:39:04.650Z,99760.52
2019-03-03T00:42:29.936Z,99759.47
2019-03-03T00:45:54.496Z,99756.48
2019-03-03T00:49:07.066Z,99754.34
2019-03-03T00:52:30.503Z,99759.98
2019-03-03T00:55:53.597Z,99758.31
2019-03-03T00:59:20.955Z,99759.56
2019-03-03T01:02:40.222Z,99760.03
2019-03-03T01:05:58.992Z,99755.79
2019-03-03T01:09:27.861Z,99759.70
2019-03-03T01:13:04.645Z,99763.50
2019-03-03T01:16:29.991Z,99761.02
2019-03-03T01:20:09.647Z,99766.42
2019-03-03T01:23:32.930Z,99767.01
2019-03-03T01:26:38.760Z,99765.28
2019-03-03T01:29:44.475Z,99764.75
2019-03-03T01:32:50.184Z,99761.69
2019-03-03T01:35:55.907Z,99761.82
2019-03-03T01:39:01.628Z,99760.13
2019-03-03T01:42:08.898Z,99764.49
2019-03-03T01:45:14.848Z,99762.19
2019-03-03T01:48:20.582Z,99759.69
2019-03-03T01:51:26.305Z,99752.44
2019-03-03T01:54:32.117Z,99750.41
2019-03-03T01:57:37.948Z,99754.12
2019-03-03T02:00:44.982Z,99755.77
2019-03-03T02:03:50.944Z,99768.08
2019-03-03T02:06:56.999Z,99765.81
2019-03-03T02:10:02.710Z,99771.73
2019-03-03T02:13:08.856Z,99773.48
2019-03-03T02:16:14.664Z,99779.77
2019-03-03T02:19:20.506Z,99782.63
2019-03-03T02:22:26.230Z,99781.20
2019-03-03T02:25:31.947Z,99782.70
2019-03-03T02:28:37.718Z,99786.72
2019-03-03T02:31:43.435Z,99783.50
2019-03-03T02:34:49.185Z,99784.23
2019-03-03T02:37:54.892Z,99783.08
2019-03-03T02:41:00.605Z,99783.77
2019-03-03T02:44:06.583Z,99781.30
2019-03-03T02:47:12.317Z,99781.55
2019-03-03T02:50:18.127Z,99782.37
2019-03-03T02:53:23.866Z,99785.91
2019-03-03T02:56:29.623Z,99794.41
2019-03-03T02:59:35.357Z,99794.98
2019-03-03T03:02:49.064Z,99794.77
2019-03-03T03:06:12.471Z,99799.45
2019-03-03T03:09:23.740Z,99796.38
2019-03-03T03:12:42.466Z,99803.70
2019-03-03T03:16:10.190Z,99798.41
2019-03-03T03:19:22.808Z,99794.77
2019-03-03T03:22:59.406Z,99799.83
2019-03-03T03:26:11.373Z,99809.17
2019-03-03T03:29:44.967Z,99803.73
2019-03-03T03:33:15.331Z,99802.64
2019-03-03T03:36:27.236Z,99799.59
2019-03-03T03:39:52.829Z,99800.52
2019-03-03T03:43:17.402Z,99796.88
2019-03-03T03:46:51.241Z,99804.41
2019-03-03T03:50:14.607Z,99805.27
2019-03-03T03:53:39.144Z,99804.05
2019-03-03T03:56:55.825Z,99805.96
2019-03-03T04:00:20.572Z,99803.72
2019-03-03T04:03:54.240Z,99799.81
2019-03-03T04:07:10.861Z,99791.80
2019-03-03T04:10:22.156Z,99789.31
2019-03-03T04:13:37.405Z,99792.69
2019-03-03T04:16:56.390Z,99792.81
2019-03-03T04:20:07.659Z,99795.31
2019-03-03T04:23:32.186Z,99801.02
2019-03-03T04:26:59.343Z,99797.36
2019-03-03T04:30:33.290Z,99800.41
2019-03-03T04:34:03.746Z,99800.41
2019-03-03T04:37:28.279Z,99806.87
2019-03-03T04:40:52.831Z,99808.05
2019-03-03T04:44:12.270Z,99811.88
2019-03-03T04:47:39.595Z,99817.95
2019-03-03T04:51:10.200Z,99822.31
2019-03-03T04:54:27.792Z,99824.98
2019-03-03T04:57:41.218Z,99823.44
2019-03-03T05:01:04.494Z,99828.11
2019-03-03T05:04:31.977Z,99832.59
2019-03-03T05:07:56.534Z,99831.88
2019-03-03T05:11:21.102Z,99838.98
2019-03-03T05:14:32.745Z,99840.63
2019-03-03T05:17:47.395Z,99837.91
2019-03-03T05:20:53.577Z,99842.61
2019-03-03T05:23:59.303Z,99841.75
2019-03-03T05:27:05.159Z,99837.97
2019-03-03T05:30:11.105Z,99847.53
2019-03-03T05:33:16.838Z,99851.42
2019-03-03T05:36:22.577Z,99849.63
2019-03-03T05:39:28.389Z,99848.44
2019-03-03T05:42:34.186Z,99853.55
2019-03-03T05:45:39.901Z,99854.70
2019-03-03T05:48:45.672Z,99853.32
2019-03-03T05:51:51.361Z,99859.13
2019-03-03T05:54:57.210Z,99853.83
2019-03-03T05:58:02.936Z,99856.09
2019-03-03T06:01:08.838Z,99869.07
2019-03-03T06:04:14.540Z,99867.91
2019-03-03T06:07:20.261Z,99875.61
2019-03-03T06:10:25.979Z,99875.23
2019-03-03T06:13:31.715Z,99877.88
2019-03-03T06:16:37.453Z,99882.59
2019-03-03T06:19:43.193Z,99886.84
2019-03-03T06:22:48.933Z,99884.38
2019-03-03T06:25:54.681Z,99892.16
2019-03-03T06:29:00.403Z,99891.44
2019-03-03T06:32:06.259Z,99893.87
2019-03-03T06:35:12.238Z,99897.44
2019-03-03T06:38:17.941Z,99901.37
2019-03-03T06:41:23.668Z,99906.05
2019-03-03T06:44:29.386Z,99900.66
2019-03-03T06:47:35.146Z,99906.44
2019-03-03T06:50:40.902Z,99905.45
2019-03-03T06:53:46.597Z,99911.55
2019-03-03T06:56:52.305Z,99911.03
2019-03-03T06:59:58.020Z,99914.67
2019-03-03T07:03:03.728Z,99917.90
2019-03-03T07:06:09.449Z,99909.78
2019-03-03T07:09:16.260Z,99910.77
2019-03-03T07:12:21.987Z,99909.67
2019-03-03T07:15:27.724Z,99909.59
2019-03-03T07:18:33.451Z,99912.41
2019-03-03T07:21:40.287Z,99903.78
2019-03-03T07:24:46.015Z,99905.85
2019-03-03T07:27:51.757Z,99915.80
2019-03-03T07:30:57.558Z,99913.27
2019-03-03T07:34:04.071Z,99916.19
2019-03-03T07:37:09.775Z,99921.30
2019-03-03T07:40:15.531Z,99921.48
2019-03-03T07:43:21.267Z,99928.30
2019-03-03T07:46:26.985Z,99924.98
2019-03-03T07:49:32.728Z,99927.77
2019-03-03T07:52:38.654Z,99919.14
2019-03-03T07:55:44.376Z,99916.11
2019-03-03T07:58:50.102Z,99918.96
2019-03-03T08:01:55.805Z,99923.83
2019-03-03T08:05:01.522Z,99922.69
2019-03-03T08:08:07.334Z,99924.53
2019-03-03T08:11:13.168Z,99925.05
2019-03-03T08:14:18.884Z,99927.70
2019-03-03T08:17:24.617Z,99921.18
2019-03-03T08:20:31.432Z,99929.16
2019-03-03T08:23:37.571Z,99929.56
2019-03-03T08:26:43.324Z,99928.02
2019-03-03T08:29:49.068Z,99920.62
2019-03-03T08:32:54.794Z,99921.20
2019-03-03T08:36:00.518Z,99921.06
2019-03-03T08:39:08.303Z,99921.68
2019-03-03T08:42:33.092Z,99924.64
2019-03-03T08:46:13.006Z,99924.16
2019-03-03T08:49:40.762Z,99933.71
2019-03-03T08:53:02.810Z,99931.91
2019-03-03T08:56:25.524Z,99938.52
2019-03-03T08:59:44.055Z,99937.12
2019-03-03T09:03:07.264Z,99935.77
2019-03-03T09:06:30.672Z,99937.98
2019-03-03T09:09:52.493Z,99934.45
2019-03-03T09:13:05.412Z,99940.25
2019-03-03T09:16:41.995Z,99949.44
2019-03-03T09:20:12.637Z,99944.25
2019-03-03T09:23:29.240Z,99948.39
2019-03-03T09:26:53.717Z,99947.69
2019-03-03T09:30:12.915Z,99945.47
2019-03-03T09:33:36.832Z,99941.11
2019-03-03T09:37:01.766Z,99942.46
2019-03-03T09:40:36.484Z,99939.08
2019-03-03T09:44:01.394Z,99942.97
2019-03-03T09:47:31.163Z,99933.00
2019-03-03T09:50:53.204Z,99941.64
2019-03-03T09:54:20.579Z,99938.30
2019-03-03T09:57:43.313Z,99940.36
2019-03-03T10:01:07.977Z,99943.45
2019-03-03T10:04:41.558Z,99946.96
2019-03-03T10:08:06.108Z,99950.97
2019-03-03T10:11:30.827Z,99949.99
2019-03-03T10:14:45.980Z,99944.86
2019-03-03T10:18:16.669Z,99938.20
2019-03-03T10:21:33.142Z,99938.19
2019-03-03T10:25:07.485Z,99929.02
2019-03-03T10:28:38.086Z,99929.92
2019-03-03T10:32:08.507Z,99929.94
2019-03-03T10:35:23.323Z,99920.38
2019-03-03T10:39:06.146Z,99916.46
2019-03-03T10:42:32.370Z,99916.31
2019-03-03T10:45:52.172Z,99905.28
2019-03-03T10:49:16.752Z,99905.80
2019-03-03T10:52:40.159Z,99902.03
2019-03-03T10:56:07.766Z,99897.31
2019-03-03T10:59:32.560Z,99893.97
2019-03-03T11:03:06.102Z,99891.07
2019-03-03T11:06:33.445Z,99891.23
2019-03-03T11:09:49.076Z,99893.45
2019-03-03T11:13:12.340Z,99884.77
2019-03-03T11:16:44.268Z,99884.50
2019-03-03T11:20:18.284Z,99877.98
2019-03-03T11:23:49.916Z,99869.42
2019-03-03T11:27:21.575Z,99872.36
2019-03-03T11:30:46.231Z,99871.72
2019-03-03T11:34:16.390Z,99866.69
2019-03-03T11:37:30.430Z,99862.21
2019-03-03T11:40:58.425Z,99859.05
2019-03-03T11:44:41.883Z,99850.50
2019-03-03T11:48:19.856Z,99853.13
2019-03-03T11:51:39.318Z,99849.30
2019-03-03T11:54:53.407Z,99841.88
2019-03-03T11:58:07.610Z,99840.05
2019-03-03T12:01:45.975Z,99832.27
2019-03-03T12:05:16.825Z,99833.94
2019-03-03T12:08:41.622Z,99829.50
2019-03-03T12:12:02.883Z,99831.63
2019-03-03T12:15:24.004Z,99837.70
2019-03-03T12:18:51.617Z,99835.56
2019-03-03T12:22:04.337Z,99833.22
2019-03-03T12:25:30.679Z,99828.14
2019-03-03T12:28:55.252Z,99833.13
2019-03-03T12:32:20.990Z,99823.41
2019-03-03T12:35:37.445Z,99812.84
2019-03-03T12:39:07.951Z,99807.09
2019-03-03T12:42:29.901Z,99806.95
2019-03-03T12:45:53.531Z,99801.25
2019-03-03T12:49:24.223Z,99798.45
2019-03-03T12:52:47.638Z,99791.23
2019-03-03T12:56:30.336Z,99795.99
2019-03-03T12:59:55.874Z,99785.80
2019-03-03T13:03:29.471Z,99789.06
2019-03-03T13:06:53.024Z,99788.27
2019-03-03T13:10:20.786Z,99786.29
2019-03-03T13:13:54.587Z,99784.17
2019-03-03T13:17:37.771Z,99781.70
2019-03-03T13:21:10.830Z,99782.38
2019-03-03T13:24:28.954Z,99783.52
2019-03-03T13:28:02.795Z,99785.64
2019-03-03T13:31:45.698Z,99781.54
2019-03-03T13:35:08.896Z,99768.56
2019-03-03T13:38:24.661Z,99768.55
2019-03-03T13:41:52.663Z,99767.25
2019-03-03T13:44:58.597Z,99768.23
2019-03-03T13:48:04.735Z,99768.56
2019-03-03T13:51:10.551Z,99769.55
2019-03-03T13:54:16.298Z,99764.81
2019-03-03T13:57:22.175Z,99766.12
2019-03-03T14:00:27.915Z,99760.02
2019-03-03T14:03:33.753Z,99764.95
2019-03-03T14:06:39.660Z,99760.66
2019-03-03T14:09:45.486Z,99761.15
2019-03-03T14:12:51.304Z,99769.27
2019-03-03T14:15:58.229Z,99776.75
2019-03-03T14:19:04.119Z,99774.22
2019-03-03T14:22:09.943Z,99776.84
2019-03-03T14:25:16.421Z,99772.94
2019-03-03T14:28:22.342Z,99782.19
2019-03-03T14:31:28.171Z,99770.16
2019-03-03T14:34:33.926Z,99770.96
2019-03-03T14:37:39.789Z,99769.58
2019-03-03T14:40:45.751Z,99770.67
2019-03-03T14:43:51.562Z,99782.16
2019-03-03T14:46:57.324Z,99784.40
2019-03-03T14:50:03.401Z,99772.55
2019-03-03T14:53:09.222Z,99772.92
2019-03-03T14:56:15.020Z,99772.50
2019-03-03T14:59:20.759Z,99768.65
2019-03-03T15:02:26.597Z,99768.38
2019-03-03T15:05:32.747Z,99769.12
2019-03-03T15:08:38.465Z,99764.05
2019-03-03T15:11:44.162Z,99761.39
2019-03-03T15:14:50.011Z,99757.61
2019-03-03T15:17:55.841Z,99760.86
2019-03-03T15:21:01.719Z,99760.86
2019-03-03T15:24:07.676Z,99764.86
2019-03-03T15:27:13.476Z,99760.55
2019-03-03T15:30:20.636Z,99763.07
2019-03-03T15:33:26.451Z,99763.45
2019-03-03T15:36:32.780Z,99754.62
2019-03-03T15:39:38.513Z,99753.00
2019-03-03T15:42:44.986Z,99752.73
2019-03-03T15:45:50.922Z,99752.97
2019-03-03T15:48:56.744Z,99757.47
2019-03-03T15:52:02.584Z,99763.65
2019-03-03T15:55:10.174Z,99767.84
2019-03-03T15:58:15.927Z,99762.30
2019-03-03T16:01:21.856Z,99765.84
2019-03-03T16:04:27.700Z,99767.02
2019-03-03T16:07:33.540Z,99770.20
2019-03-03T16:10:39.269Z,99771.25
2019-03-03T16:13:44.986Z,99773.86
2019-03-03T16:16:50.808Z,99767.09
2019-03-03T16:19:56.527Z,99765.50
2019-03-03T16:23:02.396Z,99769.94
2019-03-03T16:26:08.144Z,99774.88
2019-03-03T16:29:13.891Z,99780.63
2019-03-03T16:32:19.707Z,99787.95
2019-03-03T16:35:25.565Z,99792.80
2019-03-03T16:38:31.319Z,99784.91
2019-03-03T16:41:37.081Z,99787.78
2019-03-03T16:44:42.803Z,99790.09
2019-03-03T16:47:48.744Z,99791.41
2019-03-03T16:50:54.483Z,99797.73
2019-03-03T16:54:00.203Z,99803.90
2019-03-03T16:57:06.153Z,99806.06
2019-03-03T17:00:17.376Z,99812.56
2019-03-03T17:03:23.102Z,99812.70
2019-03-03T17:06:28.944Z,99819.50
2019-03-03T17:09:34.728Z,99818.83
2019-03-03T17:12:40.594Z,99824.13
2019-03-03T17:15:46.444Z,99821.16
2019-03-03T17:18:52.203Z,99821.03
2019-03-03T17:21:57.943Z,99817.97
2019-03-03T17:25:03.797Z,99818.23
2019-03-03T17:28:09.559Z,99822.20
2019-03-03T17:31:15.310Z,99822.98
2019-03-03T17:34:21.035Z,99823.03
2019-03-03T17:37:26.855Z,99822.77
2019-03-03T17:40:32.694Z,99821.86
2019-03-03T17:43:38.457Z,99819.02
2019-03-03T17:46:44.222Z,99825.16
2019-03-03T17:49:49.954Z,99827.46
2019-03-03T17:52:55.839Z,99822.98
2019-03-03T17:56:01.582Z,99823.46
2019-03-03T17:59:07.405Z,99815.06
2019-03-03T18:02:13.266Z,99809.60
2019-03-03T18:05:20.443Z,99807.52
2019-03-03T18:08:26.298Z,99804.33
2019-03-03T18:11:32.029Z,99800.76
2019-03-03T18:14:37.804Z,99798.92
2019-03-03T18:17:43.753Z,99799.02
2019-03-03T18:20:49.515Z,99800.61
2019-03-03T18:23:55.255Z,99802.63
2019-03-03T18:27:00.977Z,99809.66
2019-03-03T18:30:08.433Z,99811.32
2019-03-03T18:33:14.146Z,99813.94
2019-03-03T18:36:19.908Z,99811.02
2019-03-03T18:39:25.662Z,99800.86
2019-03-03T18:42:31.470Z,99803.49
2019-03-03T18:45:37.231Z,99807.47
2019-03-03T18:48:42.944Z,99803.89
2019-03-03T18:51:48.648Z,99813.25
2019-03-03T18:54:54.360Z,99810.03
2019-03-03T18:58:00.286Z,99807.70
2019-03-03T19:01:06.747Z,99807.52
2019-03-03T19:04:12.522Z,99811.57
2019-03-03T19:07:18.369Z,99809.08
2019-03-03T19:10:25.335Z,99809.37
2019-03-03T19:13:31.239Z,99814.95
2019-03-03T19:16:36.956Z,99808.55
2019-03-03T19:19:44.761Z,99804.08
2019-03-03T19:22:50.823Z,99812.20
2019-03-03T19:25:56.550Z,99808.23
2019-03-03T19:29:03.272Z,99808.05
2019-03-03T19:32:09.198Z,99802.06
2019-03-03T19:35:15.031Z,99799.12
2019-03-03T19:38:20.970Z,99803.42
2019-03-03T19:41:26.786Z,99803.23
2019-03-03T19:44:32.678Z,99801.38
2019-03-03T19:47:38.618Z,99795.27
2019-03-03T19:50:44.457Z,99795.27
2019-03-03T19:53:50.408Z,99795.65
2019-03-03T19:56:56.376Z,99798.48
2019-03-03T20:00:02.233Z,99801.31
2019-03-03T20:03:09.857Z,99797.50
2019-03-03T20:06:15.700Z,99798.48
2019-03-03T20:09:21.471Z,99794.78
2019-03-03T20:12:27.238Z,99798.00
2019-03-03T20:15:33.298Z,99800.63
2019-03-03T20:18:39.095Z,99803.18
2019-03-03T20:21:45.375Z,99790.77
2019-03-03T20:24:51.330Z,99797.30
2019-03-03T20:27:57.026Z,99787.47
2019-03-03T20:31:03.145Z,99792.84
2019-03-03T20:34:08.881Z,99793.20
2019-03-03T20:37:14.726Z,99794.94
2019-03-03T20:40:20.558Z,99797.55
2019-03-03T20:43:26.240Z,99793.03
2019-03-03T20:46:31.977Z,99787.04
2019-03-03T20:49:37.756Z,99794.97
2019-03-03T20:52:43.812Z,99788.50
2019-03-03T20:55:49.596Z,99785.18
2019-03-03T20:58:55.339Z,99796.00
2019-03-03T21:02:01.066Z,99798.24
2019-03-03T21:05:08.105Z,99783.55
2019-03-03T21:08:13.863Z,99782.39
2019-03-03T21:11:19.618Z,99785.66
2019-03-03T21:14:25.353Z,99788.20
2019-03-03T21:17:31.064Z,99784.89
2019-03-03T21:20:36.804Z,99786.89
2019-03-03T21:23:42.540Z,99785.34
2019-03-03T21:26:48.287Z,99773.99
2019-03-03T21:29:54.043Z,99768.70
2019-03-03T21:32:59.764Z,99775.19
2019-03-03T21:36:05.698Z,99774.21
2019-03-03T21:39:12.054Z,99776.59
2019-03-03T21:42:18.089Z,99768.11
2019-03-03T21:45:24.263Z,99765.02
2019-03-03T21:48:30.115Z,99758.20
2019-03-03T21:51:35.897Z,99758.31
2019-03-03T21:54:41.612Z,99769.08
2019-03-03T21:57:47.364Z,99765.24
2019-03-03T22:00:53.407Z,99768.24
2019-03-03T22:03:59.148Z,99762.08
2019-03-03T22:07:04.874Z,99761.92
2019-03-03T22:10:10.735Z,99765.65
2019-03-03T22:13:16.426Z,99771.83
2019-03-03T22:16:22.172Z,99769.61
2019-03-03T22:19:27.943Z,99761.92
2019-03-03T22:22:33.664Z,99760.89
2019-03-03T22:25:39.429Z,99758.91
2019-03-03T22:28:45.143Z,99750.67
2019-03-03T22:31:50.888Z,99750.47
2019-03-03T22:34:56.610Z,99753.31
2019-03-03T22:38:02.321Z,99754.05
2019-03-03T22:41:08.023Z,99753.72
2019-03-03T22:44:13.760Z,99755.23
2019-03-03T22:47:19.510Z,99748.81
2019-03-03T22:50:25.206Z,99739.17
2019-03-03T22:53:30.931Z,99740.00
2019-03-03T22:56:36.655Z,99732.84
2019-03-03T22:59:42.362Z,99742.59
2019-03-03T23:02:48.070Z,99743.05
2019-03-03T23:06:17.099Z,99743.66
2019-03-03T23:10:08.860Z,99739.16
2019-03-03T23:14:01.158Z,99740.28
2019-03-03T23:17:26.378Z,99734.33
2019-03-03T23:21:03.986Z,99735.52
